sensor_id;sensor_type;location;lat;lon;timestamp;pressure;altitude;pressure_sealevel;temperature;humidity
29385;BME280;16367;48.736;9.218;2022-12-18T00:00:15;-22874.91;;;-9.21;100.00
29385;BME280;16367;48.736;9.218;2022-12-18T00:02:18;-22876.19;;;-9.17;100.00
29385;BME280;16367;48.736;9.218;2022-12-18T00:04:24;-22879.41;;;-9.07;100.00
29385;BME280;16367;48.736;9.218;2022-12-18T00:06:28;-22876.69;;;-9.16;100.00
29385;BME280;16367;48.736;9.218;2022-12-18T00:08:31;-22875.56;;;-9.19;100.00
29385;BME280;16367;48.736;9.218;2022-12-18T00:10:35;-22878.13;;;-9.11;100.00
29385;BME280;16367;48.736;9.218;2022-12-18T00:12:37;-22879.41;;;-9.07;100.00
29385;BME280;16367;48.736;9.218;2022-12-18T00:14:40;-22879.09;;;-9.08;100.00
29385;BME280;16367;48.736;9.218;2022-12-18T00:16:47;-22873.94;;;-9.24;100.00
29385;BME280;16367;48.736;9.218;2022-12-18T00:18:52;-22871.38;;;-9.32;100.00
29385;BME280;16367;48.736;9.218;2022-12-18T00:20:58;-22868.78;;;-9.40;100.00
29385;BME280;16367;48.736;9.218;2022-12-18T00:23:01;-22870.72;;;-9.34;100.00
29385;BME280;16367;48.736;9.218;2022-12-18T00:25:04;-22869.44;;;-9.38;100.00
29385;BME280;16367;48.736;9.218;2022-12-18T00:27:07;-22872.50;;;-9.29;100.00
29385;BME280;16367;48.736;9.218;2022-12-18T00:29:11;-22868.31;;;-9.42;100.00
29385;BME280;16367;48.736;9.218;2022-12-18T00:31:16;-22867.50;;;-9.44;100.00
29385;BME280;16367;48.736;9.218;2022-12-18T00:33:19;-22866.72;;;-9.47;100.00
29385;BME280;16367;48.736;9.218;2022-12-18T00:35:22;-22863.97;;;-9.55;100.00
29385;BME280;16367;48.736;9.218;2022-12-18T00:37:26;-22867.50;;;-9.44;100.00
29385;BME280;16367;48.736;9.218;2022-12-18T00:39:29;-22867.84;;;-9.43;100.00
29385;BME280;16367;48.736;9.218;2022-12-18T00:41:32;-22869.13;;;-9.39;100.00
29385;BME280;16367;48.736;9.218;2022-12-18T00:43:53;-22868.00;;;-9.43;100.00
29385;BME280;16367;48.736;9.218;2022-12-18T00:45:56;-22869.44;;;-9.38;100.00
29385;BME280;16367;48.736;9.218;2022-12-18T00:47:59;-22866.88;;;-9.46;100.00
29385;BME280;16367;48.736;9.218;2022-12-18T00:50:02;-22867.84;;;-9.43;100.00
29385;BME280;16367;48.736;9.218;2022-12-18T00:52:05;-22863.16;;;-9.58;100.00
29385;BME280;16367;48.736;9.218;2022-12-18T00:54:09;-22857.38;;;-9.76;100.00
29385;BME280;16367;48.736;9.218;2022-12-18T00:56:12;-22859.78;;;-9.68;100.00
29385;BME280;16367;48.736;9.218;2022-12-18T00:58:16;-22857.22;;;-9.76;100.00
29385;BME280;16367;48.736;9.218;2022-12-18T01:00:19;-22855.28;;;-9.82;100.00
29385;BME280;16367;48.736;9.218;2022-12-18T01:02:21;-22856.91;;;-9.77;100.00
29385;BME280;16367;48.736;9.218;2022-12-18T01:04:24;-22862.69;;;-9.59;100.00
29385;BME280;16367;48.736;9.218;2022-12-18T01:06:27;-22861.25;;;-9.64;100.00
29385;BME280;16367;48.736;9.218;2022-12-18T01:08:30;-22864.44;;;-9.54;100.00
29385;BME280;16367;48.736;9.218;2022-12-18T01:10:34;-22865.91;;;-9.49;100.00
29385;BME280;16367;48.736;9.218;2022-12-18T01:12:37;-22864.63;;;-9.53;100.00
29385;BME280;16367;48.736;9.218;2022-12-18T01:14:39;-22868.47;;;-9.41;100.00
29385;BME280;16367;48.736;9.218;2022-12-18T01:16:42;-22857.88;;;-9.74;100.00
29385;BME280;16367;48.736;9.218;2022-12-18T01:18:45;-22857.22;;;-9.76;100.00
29385;BME280;16367;48.736;9.218;2022-12-18T01:20:48;-22858.19;;;-9.73;100.00
29385;BME280;16367;48.736;9.218;2022-12-18T01:22:51;-22861.72;;;-9.62;100.00
29385;BME280;16367;48.736;9.218;2022-12-18T01:24:54;-22861.41;;;-9.63;100.00
29385;BME280;16367;48.736;9.218;2022-12-18T01:26:58;-22863.00;;;-9.58;100.00
29385;BME280;16367;48.736;9.218;2022-12-18T01:29:00;-22862.22;;;-9.61;100.00
29385;BME280;16367;48.736;9.218;2022-12-18T01:31:15;-22860.44;;;-9.66;100.00
29385;BME280;16367;48.736;9.218;2022-12-18T01:33:17;-22864.94;;;-9.52;100.00
29385;BME280;16367;48.736;9.218;2022-12-18T01:35:20;-22868.47;;;-9.41;100.00
29385;BME280;16367;48.736;9.218;2022-12-18T01:37:23;-22870.88;;;-9.34;100.00
29385;BME280;16367;48.736;9.218;2022-12-18T01:39:26;-22872.50;;;-9.29;100.00
29385;BME280;16367;48.736;9.218;2022-12-18T01:41:31;-22875.88;;;-9.18;100.00
29385;BME280;16367;48.736;9.218;2022-12-18T01:43:56;-22877.00;;;-9.15;100.00
29385;BME280;16367;48.736;9.218;2022-12-18T01:45:59;-22879.09;;;-9.08;100.00
29385;BME280;16367;48.736;9.218;2022-12-18T01:48:05;-22879.41;;;-9.07;100.00
29385;BME280;16367;48.736;9.218;2022-12-18T01:50:11;-22884.22;;;-8.92;100.00
29385;BME280;16367;48.736;9.218;2022-12-18T01:52:16;-22884.06;;;-8.92;100.00
29385;BME280;16367;48.736;9.218;2022-12-18T01:54:19;-22882.63;;;-8.97;100.00
29385;BME280;16367;48.736;9.218;2022-12-18T01:56:22;-22884.88;;;-8.90;100.00
29385;BME280;16367;48.736;9.218;2022-12-18T01:58:30;-22887.59;;;-8.81;100.00
29385;BME280;16367;48.736;9.218;2022-12-18T02:00:36;-22889.38;;;-8.76;100.00
29385;BME280;16367;48.736;9.218;2022-12-18T02:02:39;-22885.50;;;-8.88;100.00
29385;BME280;16367;48.736;9.218;2022-12-18T02:04:42;-22889.38;;;-8.76;100.00
29385;BME280;16367;48.736;9.218;2022-12-18T02:06:52;-22890.66;;;-8.72;100.00
29385;BME280;16367;48.736;9.218;2022-12-18T02:09:02;-22894.50;;;-8.60;100.00
29385;BME280;16367;48.736;9.218;2022-12-18T02:11:17;-22891.63;;;-8.69;100.00
29385;BME280;16367;48.736;9.218;2022-12-18T02:13:27;-22900.28;;;-8.42;100.00
29385;BME280;16367;48.736;9.218;2022-12-18T02:15:39;-22893.88;;;-8.62;100.00
29385;BME280;16367;48.736;9.218;2022-12-18T02:17:47;-22893.06;;;-8.64;100.00
29385;BME280;16367;48.736;9.218;2022-12-18T02:20:02;-22892.25;;;-8.67;100.00
29385;BME280;16367;48.736;9.218;2022-12-18T02:22:18;-22891.13;;;-8.70;100.00
29385;BME280;16367;48.736;9.218;2022-12-18T02:24:30;-22891.94;;;-8.68;100.00
29385;BME280;16367;48.736;9.218;2022-12-18T02:26:41;-22894.34;;;-8.60;100.00
29385;BME280;16367;48.736;9.218;2022-12-18T02:28:51;-22897.72;;;-8.50;100.00
29385;BME280;16367;48.736;9.218;2022-12-18T02:30:56;-22896.94;;;-8.52;100.00
29385;BME280;16367;48.736;9.218;2022-12-18T02:33:04;-22895.31;;;-8.57;100.00
29385;BME280;16367;48.736;9.218;2022-12-18T02:35:10;-22891.94;;;-8.68;100.00
29385;BME280;16367;48.736;9.218;2022-12-18T02:37:16;-22893.88;;;-8.62;100.00
29385;BME280;16367;48.736;9.218;2022-12-18T02:39:21;-22891.78;;;-8.68;100.00
29385;BME280;16367;48.736;9.218;2022-12-18T02:41:25;-22887.75;;;-8.81;100.00
29385;BME280;16367;48.736;9.218;2022-12-18T02:43:29;-22884.56;;;-8.91;100.00
29385;BME280;16367;48.736;9.218;2022-12-18T02:45:32;-22884.22;;;-8.92;100.00
29385;BME280;16367;48.736;9.218;2022-12-18T02:47:37;-22881.34;;;-9.01;100.00
29385;BME280;16367;48.736;9.218;2022-12-18T02:49:45;-22881.66;;;-9.00;100.00
29385;BME280;16367;48.736;9.218;2022-12-18T02:51:53;-22883.59;;;-8.94;100.00
29385;BME280;16367;48.736;9.218;2022-12-18T02:54:00;-22886.97;;;-8.83;100.00
29385;BME280;16367;48.736;9.218;2022-12-18T02:56:13;-22881.97;;;-8.99;100.00
29385;BME280;16367;48.736;9.218;2022-12-18T02:58:25;-22879.41;;;-9.07;100.00
29385;BME280;16367;48.736;9.218;2022-12-18T03:00:35;-22877.63;;;-9.13;100.00
29385;BME280;16367;48.736;9.218;2022-12-18T03:02:44;-22877.16;;;-9.14;100.00
29385;BME280;16367;48.736;9.218;2022-12-18T03:04:54;-22876.84;;;-9.15;100.00
29385;BME280;16367;48.736;9.218;2022-12-18T03:07:02;-22875.06;;;-9.21;100.00
29385;BME280;16367;48.736;9.218;2022-12-18T03:09:09;-22878.75;;;-9.09;100.00
29385;BME280;16367;48.736;9.218;2022-12-18T03:11:13;-22880.06;;;-9.05;100.00
29385;BME280;16367;48.736;9.218;2022-12-18T03:13:21;-22879.72;;;-9.06;100.00
29385;BME280;16367;48.736;9.218;2022-12-18T03:15:29;-22874.09;;;-9.24;100.00
29385;BME280;16367;48.736;9.218;2022-12-18T03:17:34;-22875.88;;;-9.18;100.00
29385;BME280;16367;48.736;9.218;2022-12-18T03:19:37;-22873.13;;;-9.27;100.00
29385;BME280;16367;48.736;9.218;2022-12-18T03:21:44;-22873.94;;;-9.24;100.00
29385;BME280;16367;48.736;9.218;2022-12-18T03:23:49;-22868.47;;;-9.41;100.00
29385;BME280;16367;48.736;9.218;2022-12-18T03:25:57;-22866.88;;;-9.46;100.00
29385;BME280;16367;48.736;9.218;2022-12-18T03:28:10;-22862.53;;;-9.60;100.00
29385;BME280;16367;48.736;9.218;2022-12-18T03:30:15;-22859.47;;;-9.69;100.00
29385;BME280;16367;48.736;9.218;2022-12-18T03:32:23;-22861.41;;;-9.63;100.00
29385;BME280;16367;48.736;9.218;2022-12-18T03:34:32;-22864.28;;;-9.54;100.00
29385;BME280;16367;48.736;9.218;2022-12-18T03:36:36;-22860.28;;;-9.67;100.00
29385;BME280;16367;48.736;9.218;2022-12-18T03:38:39;-22859.97;;;-9.68;100.00
29385;BME280;16367;48.736;9.218;2022-12-18T03:40:51;-22862.03;;;-9.61;100.00
29385;BME280;16367;48.736;9.218;2022-12-18T03:43:00;-22858.81;;;-9.71;100.00
29385;BME280;16367;48.736;9.218;2022-12-18T03:45:08;-22855.94;;;-9.80;100.00
29385;BME280;16367;48.736;9.218;2022-12-18T03:47:14;-22851.75;;;-9.94;100.00
29385;BME280;16367;48.736;9.218;2022-12-18T03:49:23;-22849.66;;;-10.00;100.00
29385;BME280;16367;48.736;9.218;2022-12-18T03:51:36;-22852.41;;;-9.92;100.00
29385;BME280;16367;48.736;9.218;2022-12-18T03:53:44;-22846.94;;;-10.09;100.00
29385;BME280;16367;48.736;9.218;2022-12-18T03:55:51;-22846.28;;;-10.11;100.00
29385;BME280;16367;48.736;9.218;2022-12-18T03:57:54;-22852.25;;;-9.92;100.00
29385;BME280;16367;48.736;9.218;2022-12-18T04:00:00;-22844.34;;;-10.17;100.00
29385;BME280;16367;48.736;9.218;2022-12-18T04:02:05;-22843.56;;;-10.19;100.00
29385;BME280;16367;48.736;9.218;2022-12-18T04:04:10;-22849.19;;;-10.02;100.00
29385;BME280;16367;48.736;9.218;2022-12-18T04:06:15;-22837.28;;;-10.39;100.00
29385;BME280;16367;48.736;9.218;2022-12-18T04:08:20;-22835.66;;;-10.44;100.00
29385;BME280;16367;48.736;9.218;2022-12-18T04:10:24;-22834.88;;;-10.46;100.00
29385;BME280;16367;48.736;9.218;2022-12-18T04:12:29;-22831.50;;;-10.57;100.00
29385;BME280;16367;48.736;9.218;2022-12-18T04:14:31;-22831.81;;;-10.56;100.00
29385;BME280;16367;48.736;9.218;2022-12-18T04:16:37;-22826.66;;;-10.72;100.00
29385;BME280;16367;48.736;9.218;2022-12-18T04:18:39;-22827.16;;;-10.71;100.00
29385;BME280;16367;48.736;9.218;2022-12-18T04:20:42;-22824.41;;;-10.79;100.00
29385;BME280;16367;48.736;9.218;2022-12-18T04:22:45;-22827.00;;;-10.71;100.00
29385;BME280;16367;48.736;9.218;2022-12-18T04:24:49;-22830.53;;;-10.60;100.00
29385;BME280;16367;48.736;9.218;2022-12-18T04:26:52;-22832.63;;;-10.53;100.00
29385;BME280;16367;48.736;9.218;2022-12-18T04:28:54;-22833.44;;;-10.51;100.00
29385;BME280;16367;48.736;9.218;2022-12-18T04:30:57;-22827.94;;;-10.68;100.00
29385;BME280;16367;48.736;9.218;2022-12-18T04:33:00;-22823.13;;;-10.83;100.00
29385;BME280;16367;48.736;9.218;2022-12-18T04:35:03;-22820.22;;;-10.92;100.00
29385;BME280;16367;48.736;9.218;2022-12-18T04:37:08;-22819.91;;;-10.93;100.00
29385;BME280;16367;48.736;9.218;2022-12-18T04:39:10;-22821.03;;;-10.90;100.00
29385;BME280;16367;48.736;9.218;2022-12-18T04:41:14;-22827.16;;;-10.71;100.00
29385;BME280;16367;48.736;9.218;2022-12-18T04:43:17;-22829.09;;;-10.64;100.00
29385;BME280;16367;48.736;9.218;2022-12-18T04:45:20;-22828.13;;;-10.68;100.00
29385;BME280;16367;48.736;9.218;2022-12-18T04:47:22;-22826.66;;;-10.72;100.00
29385;BME280;16367;48.736;9.218;2022-12-18T04:49:25;-22828.91;;;-10.65;100.00
29385;BME280;16367;48.736;9.218;2022-12-18T04:51:28;-22831.50;;;-10.57;100.00
29385;BME280;16367;48.736;9.218;2022-12-18T04:53:31;-22829.88;;;-10.62;100.00
29385;BME280;16367;48.736;9.218;2022-12-18T04:55:34;-22821.69;;;-10.88;100.00
29385;BME280;16367;48.736;9.218;2022-12-18T04:57:38;-22823.94;;;-10.81;100.00
29385;BME280;16367;48.736;9.218;2022-12-18T04:59:41;-22828.91;;;-10.65;100.00
29385;BME280;16367;48.736;9.218;2022-12-18T05:01:44;-22822.00;;;-10.87;100.00
29385;BME280;16367;48.736;9.218;2022-12-18T05:03:47;-22818.28;;;-10.98;100.00
29385;BME280;16367;48.736;9.218;2022-12-18T05:05:50;-22815.72;;;-11.06;100.00
29385;BME280;16367;48.736;9.218;2022-12-18T05:07:53;-22823.44;;;-10.82;100.00
29385;BME280;16367;48.736;9.218;2022-12-18T05:09:56;-22819.59;;;-10.94;100.00
29385;BME280;16367;48.736;9.218;2022-12-18T05:11:59;-22822.97;;;-10.84;100.00
29385;BME280;16367;48.736;9.218;2022-12-18T05:14:03;-22820.72;;;-10.91;100.00
29385;BME280;16367;48.736;9.218;2022-12-18T05:16:06;-22816.84;;;-11.03;100.00
29385;BME280;16367;48.736;9.218;2022-12-18T05:18:09;-22818.28;;;-10.98;100.00
29385;BME280;16367;48.736;9.218;2022-12-18T05:20:12;-22821.19;;;-10.89;100.00
29385;BME280;16367;48.736;9.218;2022-12-18T05:22:15;-22820.22;;;-10.92;100.00
29385;BME280;16367;48.736;9.218;2022-12-18T05:24:18;-22817.50;;;-11.01;100.00
29385;BME280;16367;48.736;9.218;2022-12-18T05:26:20;-22817.66;;;-11.00;100.00
29385;BME280;16367;48.736;9.218;2022-12-18T05:28:24;-22818.78;;;-10.97;100.00
29385;BME280;16367;48.736;9.218;2022-12-18T05:30:29;-22819.75;;;-10.94;100.00
29385;BME280;16367;48.736;9.218;2022-12-18T05:32:31;-22817.34;;;-11.01;100.00
29385;BME280;16367;48.736;9.218;2022-12-18T05:34:34;-22816.38;;;-11.04;100.00
29385;BME280;16367;48.736;9.218;2022-12-18T05:36:37;-22815.25;;;-11.08;100.00
29385;BME280;16367;48.736;9.218;2022-12-18T05:38:40;-22816.03;;;-11.05;100.00
29385;BME280;16367;48.736;9.218;2022-12-18T05:40:43;-22815.09;;;-11.08;100.00
29385;BME280;16367;48.736;9.218;2022-12-18T05:42:46;-22817.81;;;-11.00;100.00
29385;BME280;16367;48.736;9.218;2022-12-18T05:44:48;-22822.47;;;-10.85;100.00
29385;BME280;16367;48.736;9.218;2022-12-18T05:46:53;-22823.13;;;-10.83;100.00
29385;BME280;16367;48.736;9.218;2022-12-18T05:48:59;-22822.66;;;-10.85;100.00
29385;BME280;16367;48.736;9.218;2022-12-18T05:51:07;-22823.75;;;-10.81;100.00
29385;BME280;16367;48.736;9.218;2022-12-18T05:53:10;-22820.38;;;-10.92;100.00
29385;BME280;16367;48.736;9.218;2022-12-18T05:55:13;-22816.84;;;-11.03;100.00
29385;BME280;16367;48.736;9.218;2022-12-18T05:57:16;-22818.63;;;-10.97;100.00
29385;BME280;16367;48.736;9.218;2022-12-18T05:59:18;-22821.69;;;-10.88;100.00
29385;BME280;16367;48.736;9.218;2022-12-18T06:01:23;-22826.66;;;-10.72;100.00
29385;BME280;16367;48.736;9.218;2022-12-18T06:03:28;-22821.53;;;-10.88;100.00
29385;BME280;16367;48.736;9.218;2022-12-18T06:05:34;-22822.47;;;-10.85;100.00
29385;BME280;16367;48.736;9.218;2022-12-18T06:07:38;-22818.63;;;-10.97;100.00
29385;BME280;16367;48.736;9.218;2022-12-18T06:09:41;-22823.13;;;-10.83;100.00
29385;BME280;16367;48.736;9.218;2022-12-18T06:11:44;-22826.50;;;-10.73;100.00
29385;BME280;16367;48.736;9.218;2022-12-18T06:13:49;-22824.91;;;-10.78;100.00
29385;BME280;16367;48.736;9.218;2022-12-18T06:16:01;-22822.47;;;-10.85;100.00
29385;BME280;16367;48.736;9.218;2022-12-18T06:18:04;-22825.06;;;-10.77;100.00
29385;BME280;16367;48.736;9.218;2022-12-18T06:20:09;-22827.00;;;-10.71;100.00
29385;BME280;16367;48.736;9.218;2022-12-18T06:22:12;-22823.75;;;-10.81;100.00
29385;BME280;16367;48.736;9.218;2022-12-18T06:24:15;-22820.22;;;-10.92;100.00
29385;BME280;16367;48.736;9.218;2022-12-18T06:26:18;-22826.81;;;-10.72;100.00
29385;BME280;16367;48.736;9.218;2022-12-18T06:28:28;-22823.75;;;-10.81;100.00
29385;BME280;16367;48.736;9.218;2022-12-18T06:30:31;-22820.88;;;-10.90;100.00
29385;BME280;16367;48.736;9.218;2022-12-18T06:32:33;-22825.22;;;-10.77;100.00
29385;BME280;16367;48.736;9.218;2022-12-18T06:34:37;-22821.84;;;-10.87;100.00
29385;BME280;16367;48.736;9.218;2022-12-18T06:36:41;-22825.38;;;-10.76;100.00
29385;BME280;16367;48.736;9.218;2022-12-18T06:38:44;-22825.38;;;-10.76;100.00
29385;BME280;16367;48.736;9.218;2022-12-18T06:40:46;-22820.88;;;-10.90;100.00
29385;BME280;16367;48.736;9.218;2022-12-18T06:42:49;-22822.47;;;-10.85;100.00
29385;BME280;16367;48.736;9.218;2022-12-18T06:44:52;-22826.66;;;-10.72;100.00
29385;BME280;16367;48.736;9.218;2022-12-18T06:46:55;-22831.16;;;-10.58;100.00
29385;BME280;16367;48.736;9.218;2022-12-18T06:48:57;-22827.16;;;-10.71;100.00
29385;BME280;16367;48.736;9.218;2022-12-18T06:51:00;-22828.28;;;-10.67;100.00
29385;BME280;16367;48.736;9.218;2022-12-18T06:53:05;-22834.06;;;-10.49;100.00
29385;BME280;16367;48.736;9.218;2022-12-18T06:55:08;-22834.06;;;-10.49;100.00
29385;BME280;16367;48.736;9.218;2022-12-18T06:57:11;-22834.88;;;-10.46;100.00
29385;BME280;16367;48.736;9.218;2022-12-18T06:59:13;-22834.38;;;-10.48;100.00
29385;BME280;16367;48.736;9.218;2022-12-18T07:01:17;-22833.09;;;-10.52;100.00
29385;BME280;16367;48.736;9.218;2022-12-18T07:03:20;-22835.34;;;-10.45;100.00
29385;BME280;16367;48.736;9.218;2022-12-18T07:05:22;-22836.63;;;-10.41;100.00
29385;BME280;16367;48.736;9.218;2022-12-18T07:07:25;-22837.28;;;-10.39;100.00
29385;BME280;16367;48.736;9.218;2022-12-18T07:09:29;-22840.66;;;-10.28;100.00
29385;BME280;16367;48.736;9.218;2022-12-18T07:11:32;-22843.41;;;-10.20;100.00
29385;BME280;16367;48.736;9.218;2022-12-18T07:13:35;-22841.31;;;-10.26;100.00
29385;BME280;16367;48.736;9.218;2022-12-18T07:15:39;-22842.09;;;-10.24;100.00
29385;BME280;16367;48.736;9.218;2022-12-18T07:17:41;-22844.03;;;-10.18;100.00
29385;BME280;16367;48.736;9.218;2022-12-18T07:19:44;-22846.44;;;-10.10;100.00
29385;BME280;16367;48.736;9.218;2022-12-18T07:21:47;-22841.16;;;-10.27;100.00
29385;BME280;16367;48.736;9.218;2022-12-18T07:23:50;-22841.31;;;-10.26;100.00
29385;BME280;16367;48.736;9.218;2022-12-18T07:25:54;-22843.06;;;-10.21;100.00
29385;BME280;16367;48.736;9.218;2022-12-18T07:27:56;-22845.31;;;-10.14;100.00
29385;BME280;16367;48.736;9.218;2022-12-18T07:29:59;-22845.00;;;-10.15;100.00
29385;BME280;16367;48.736;9.218;2022-12-18T07:32:02;-22848.84;;;-10.03;100.00
29385;BME280;16367;48.736;9.218;2022-12-18T07:34:05;-22854.00;;;-9.87;100.00
29385;BME280;16367;48.736;9.218;2022-12-18T07:36:08;-22856.25;;;-9.79;100.00
29385;BME280;16367;48.736;9.218;2022-12-18T07:38:12;-22858.50;;;-9.72;100.00
29385;BME280;16367;48.736;9.218;2022-12-18T07:40:14;-22858.81;;;-9.71;100.00
29385;BME280;16367;48.736;9.218;2022-12-18T07:42:18;-22861.41;;;-9.63;100.00
29385;BME280;16367;48.736;9.218;2022-12-18T07:44:33;-22862.38;;;-9.60;100.00
29385;BME280;16367;48.736;9.218;2022-12-18T07:46:36;-22871.38;;;-9.32;100.00
29385;BME280;16367;48.736;9.218;2022-12-18T07:48:39;-22873.94;;;-9.24;100.00
29385;BME280;16367;48.736;9.218;2022-12-18T07:50:41;-22873.94;;;-9.24;100.00
29385;BME280;16367;48.736;9.218;2022-12-18T07:52:44;-22878.75;;;-9.09;100.00
29385;BME280;16367;48.736;9.218;2022-12-18T07:54:47;-22882.63;;;-8.97;100.00
29385;BME280;16367;48.736;9.218;2022-12-18T07:56:50;-22881.00;;;-9.02;100.00
29385;BME280;16367;48.736;9.218;2022-12-18T07:58:55;-22877.78;;;-9.12;100.00
29385;BME280;16367;48.736;9.218;2022-12-18T08:01:02;-22881.34;;;-9.01;100.00
29385;BME280;16367;48.736;9.218;2022-12-18T08:03:06;-22883.59;;;-8.94;100.00
29385;BME280;16367;48.736;9.218;2022-12-18T08:05:09;-22885.34;;;-8.88;100.00
29385;BME280;16367;48.736;9.218;2022-12-18T08:07:12;-22888.72;;;-8.78;100.00
29385;BME280;16367;48.736;9.218;2022-12-18T08:09:15;-22890.19;;;-8.73;100.00
29385;BME280;16367;48.736;9.218;2022-12-18T08:11:18;-22892.41;;;-8.66;100.00
29385;BME280;16367;48.736;9.218;2022-12-18T08:13:22;-22894.84;;;-8.59;100.00
29385;BME280;16367;48.736;9.218;2022-12-18T08:15:26;-22902.56;;;-8.34;100.00
29385;BME280;16367;48.736;9.218;2022-12-18T08:17:29;-22920.06;;;-7.80;100.00
29385;BME280;16367;48.736;9.218;2022-12-18T08:19:31;-22909.78;;;-8.12;100.00
29385;BME280;16367;48.736;9.218;2022-12-18T08:21:34;-22905.44;;;-8.25;100.00
29385;BME280;16367;48.736;9.218;2022-12-18T08:23:37;-22909.94;;;-8.11;100.00
29385;BME280;16367;48.736;9.218;2022-12-18T08:25:43;-22910.56;;;-8.09;100.00
29385;BME280;16367;48.736;9.218;2022-12-18T08:27:46;-22916.03;;;-7.92;100.00
29385;BME280;16367;48.736;9.218;2022-12-18T08:29:49;-22928.25;;;-7.54;100.00
29385;BME280;16367;48.736;9.218;2022-12-18T08:31:53;-22947.19;;;-6.95;100.00
29385;BME280;16367;48.736;9.218;2022-12-18T08:33:56;-22932.41;;;-7.41;100.00
29385;BME280;16367;48.736;9.218;2022-12-18T08:36:00;-22932.09;;;-7.42;100.00
29385;BME280;16367;48.736;9.218;2022-12-18T08:38:03;-22947.84;;;-6.93;100.00
29385;BME280;16367;48.736;9.218;2022-12-18T08:40:07;-22967.09;;;-6.32;100.00
29385;BME280;16367;48.736;9.218;2022-12-18T08:42:10;-22963.72;;;-6.43;100.00
29385;BME280;16367;48.736;9.218;2022-12-18T08:44:31;-22951.69;;;-6.80;100.00
29385;BME280;16367;48.736;9.218;2022-12-18T08:46:41;-22964.22;;;-6.41;100.00
29385;BME280;16367;48.736;9.218;2022-12-18T08:48:46;-22978.47;;;-5.96;100.00
29385;BME280;16367;48.736;9.218;2022-12-18T08:50:54;-22973.19;;;-6.13;100.00
29385;BME280;16367;48.736;9.218;2022-12-18T08:52:57;-23011.53;;;-4.93;100.00
29385;BME280;16367;48.736;9.218;2022-12-18T08:54:59;-23009.44;;;-4.99;100.00
29385;BME280;16367;48.736;9.218;2022-12-18T08:57:02;-23014.56;;;-4.83;100.00
29385;BME280;16367;48.736;9.218;2022-12-18T08:59:05;-23002.22;;;-5.22;100.00
29385;BME280;16367;48.736;9.218;2022-12-18T09:01:09;-23048.88;;;-3.75;100.00
29385;BME280;16367;48.736;9.218;2022-12-18T09:03:13;-23068.41;;;-3.14;100.00
29385;BME280;16367;48.736;9.218;2022-12-18T09:05:18;-23079.44;;;-2.79;95.72
29385;BME280;16367;48.736;9.218;2022-12-18T09:07:20;-23075.13;;;-2.93;92.10
29385;BME280;16367;48.736;9.218;2022-12-18T09:09:23;-23083.78;;;-2.66;90.85
29385;BME280;16367;48.736;9.218;2022-12-18T09:11:27;-23021.78;;;-4.61;94.30
29385;BME280;16367;48.736;9.218;2022-12-18T09:13:30;-22994.38;;;-5.47;96.56
29385;BME280;16367;48.736;9.218;2022-12-18T09:15:33;-22990.19;;;-5.60;98.28
29385;BME280;16367;48.736;9.218;2022-12-18T09:17:36;-22985.84;;;-5.73;100.00
29385;BME280;16367;48.736;9.218;2022-12-18T09:19:39;-23013.59;;;-4.86;99.75
29385;BME280;16367;48.736;9.218;2022-12-18T09:21:43;-23031.41;;;-4.30;100.00
29385;BME280;16367;48.736;9.218;2022-12-18T09:23:49;-23027.06;;;-4.44;96.79
29385;BME280;16367;48.736;9.218;2022-12-18T09:25:58;-22999.50;;;-5.31;97.38
29385;BME280;16367;48.736;9.218;2022-12-18T09:28:01;-23032.84;;;-4.26;99.00
29385;BME280;16367;48.736;9.218;2022-12-18T09:30:05;-23062.47;;;-3.33;93.62
29385;BME280;16367;48.736;9.218;2022-12-18T09:32:08;-23080.91;;;-2.75;92.16
29385;BME280;16367;48.736;9.218;2022-12-18T09:34:11;-23085.06;;;-2.62;87.32
29385;BME280;16367;48.736;9.218;2022-12-18T09:36:15;-23043.09;;;-3.94;88.40
29385;BME280;16367;48.736;9.218;2022-12-18T09:38:20;-23067.44;;;-3.17;88.62
29385;BME280;16367;48.736;9.218;2022-12-18T09:40:26;-23046.63;;;-3.83;89.13
29385;BME280;16367;48.736;9.218;2022-12-18T09:42:31;-23058.47;;;-3.45;88.34
29385;BME280;16367;48.736;9.218;2022-12-18T09:44:36;-23045.00;;;-3.88;85.77
29385;BME280;16367;48.736;9.218;2022-12-18T09:46:49;-23042.28;;;-3.96;91.45
29385;BME280;16367;48.736;9.218;2022-12-18T09:48:55;-23036.38;;;-4.15;92.28
29385;BME280;16367;48.736;9.218;2022-12-18T09:51:02;-23016.66;;;-4.77;95.22
29385;BME280;16367;48.736;9.218;2022-12-18T09:53:10;-22983.94;;;-5.79;100.00
29385;BME280;16367;48.736;9.218;2022-12-18T09:55:22;-22965.31;;;-6.38;100.00
29385;BME280;16367;48.736;9.218;2022-12-18T09:57:31;-22985.22;;;-5.75;100.00
29385;BME280;16367;48.736;9.218;2022-12-18T09:59:37;-23007.81;;;-5.04;100.00
29385;BME280;16367;48.736;9.218;2022-12-18T10:01:41;-22986.66;;;-5.71;100.00
29385;BME280;16367;48.736;9.218;2022-12-18T10:03:46;-22973.34;;;-6.13;100.00
29385;BME280;16367;48.736;9.218;2022-12-18T10:05:56;-22984.41;;;-5.78;100.00
29385;BME280;16367;48.736;9.218;2022-12-18T10:08:06;-23006.53;;;-5.08;100.00
29385;BME280;16367;48.736;9.218;2022-12-18T10:10:22;-23002.38;;;-5.21;100.00
29385;BME280;16367;48.736;9.218;2022-12-18T10:12:32;-22982.19;;;-5.85;100.00
29385;BME280;16367;48.736;9.218;2022-12-18T10:14:43;-22986.66;;;-5.71;100.00
29385;BME280;16367;48.736;9.218;2022-12-18T10:16:57;-22978.81;;;-5.95;100.00
29385;BME280;16367;48.736;9.218;2022-12-18T10:19:11;-22994.03;;;-5.48;100.00
29385;BME280;16367;48.736;9.218;2022-12-18T10:21:20;-22991.78;;;-5.55;100.00
29385;BME280;16367;48.736;9.218;2022-12-18T10:23:26;-22989.38;;;-5.62;100.00
29385;BME280;16367;48.736;9.218;2022-12-18T10:25:37;-22987.31;;;-5.69;100.00
29385;BME280;16367;48.736;9.218;2022-12-18T10:27:43;-22979.59;;;-5.93;100.00
29385;BME280;16367;48.736;9.218;2022-12-18T10:29:46;-22985.53;;;-5.74;100.00
29385;BME280;16367;48.736;9.218;2022-12-18T10:31:48;-22977.03;;;-6.01;100.00
29385;BME280;16367;48.736;9.218;2022-12-18T10:33:53;-22995.00;;;-5.45;100.00
29385;BME280;16367;48.736;9.218;2022-12-18T10:35:57;-23004.16;;;-5.16;100.00
29385;BME280;16367;48.736;9.218;2022-12-18T10:38:06;-22993.72;;;-5.49;100.00
29385;BME280;16367;48.736;9.218;2022-12-18T10:40:11;-22991.31;;;-5.56;100.00
29385;BME280;16367;48.736;9.218;2022-12-18T10:42:24;-22990.19;;;-5.60;100.00